createdAt,value
2023-05-01T00:00:28.566Z,96124.75
2023-05-01T00:02:55.366Z,96128.78
2023-05-01T00:05:22.055Z,96122.25
2023-05-01T00:07:48.720Z,96121.47
2023-05-01T00:10:15.394Z,96119.81
2023-05-01T00:12:41.996Z,96117.28
2023-05-01T00:15:09.455Z,96106.41
2023-05-01T00:17:36.490Z,96109.59
2023-05-01T00:20:05.174Z,96105.31
2023-05-01T00:22:31.930Z,96106.53
2023-05-01T00:24:58.566Z,96098.28
2023-05-01T00:27:25.614Z,96106.41
2023-05-01T00:29:52.259Z,96101.03
2023-05-01T00:32:19.102Z,96103.56
2023-05-01T00:34:47.812Z,96098.19
2023-05-01T00:37:14.893Z,96096.88
2023-05-01T00:39:41.494Z,96086.78
2023-05-01T00:42:08.173Z,96085.34
2023-05-01T00:44:34.892Z,96082.13
2023-05-01T00:47:02.426Z,96083.13
2023-05-01T00:49:29.097Z,96084.94
2023-05-01T00:51:56.226Z,96083.38
2023-05-01T00:54:25.204Z,96080.25
2023-05-01T00:56:52.607Z,96081.97
2023-05-01T00:59:19.319Z,96081.75
2023-05-01T01:01:46.024Z,96084.88
2023-05-01T01:04:13.409Z,96084.25
2023-05-01T01:06:49.214Z,96086.09
2023-05-01T01:09:28.817Z,96085.53
2023-05-01T01:12:34.955Z,96079.94
2023-05-01T01:15:11.763Z,96082.00
2023-05-01T01:18:05.475Z,96081.09
2023-05-01T01:20:38.169Z,96076.25
2023-05-01T01:24:02.903Z,96080.56
2023-05-01T01:26:57.685Z,96072.91
2023-05-01T01:29:33.096Z,96076.59
2023-05-01T01:32:44.181Z,96079.22
2023-05-01T01:35:19.601Z,96069.47
2023-05-01T01:37:54.979Z,96073.25
2023-05-01T01:40:28.404Z,96078.88
2023-05-01T01:43:07.810Z,96064.16
2023-05-01T01:45:43.123Z,96063.19
2023-05-01T01:48:13.262Z,96064.28
2023-05-01T01:50:42.415Z,96055.44
2023-05-01T01:53:11.823Z,96066.16
2023-05-01T01:55:40.916Z,96048.06
2023-05-01T01:58:10.645Z,96053.41
2023-05-01T02:00:39.185Z,96041.97
2023-05-01T02:03:06.632Z,96048.09
2023-05-01T02:05:35.427Z,96047.59
2023-05-01T02:08:02.815Z,96049.88
2023-05-01T02:10:30.781Z,96042.59
2023-05-01T02:12:58.909Z,96046.81
2023-05-01T02:15:27.983Z,96029.34
2023-05-01T02:17:55.201Z,96029.84
2023-05-01T02:20:22.339Z,96033.53
2023-05-01T02:22:52.190Z,96037.28
2023-05-01T02:25:19.003Z,96027.88
2023-05-01T02:27:52.598Z,96027.47
2023-05-01T02:30:19.278Z,96026.78
2023-05-01T02:32:46.196Z,96026.47
2023-05-01T02:35:12.855Z,96026.06
2023-05-01T02:37:39.929Z,96024.44
2023-05-01T02:40:07.645Z,96018.19
2023-05-01T02:42:37.703Z,96026.88
2023-05-01T02:45:07.234Z,96021.25
2023-05-01T02:47:39.164Z,96020.22
2023-05-01T02:50:06.341Z,96021.94
2023-05-01T02:52:33.218Z,96012.13
2023-05-01T02:55:00.647Z,96023.34
2023-05-01T02:57:27.365Z,96022.94
2023-05-01T02:59:54.147Z,96011.56
2023-05-01T03:02:20.995Z,96018.59
2023-05-01T03:04:47.639Z,96009.66
2023-05-01T03:07:14.640Z,96010.69
2023-05-01T03:09:41.362Z,96006.78
2023-05-01T03:12:07.980Z,96010.72
2023-05-01T03:14:35.032Z,96015.34
2023-05-01T03:17:01.819Z,96005.03
2023-05-01T03:19:28.495Z,96007.91
2023-05-01T03:21:55.205Z,96008.41
2023-05-01T03:24:21.909Z,96011.16
2023-05-01T03:26:48.624Z,96015.00
2023-05-01T03:29:15.274Z,96011.72
2023-05-01T03:31:41.960Z,96009.31
2023-05-01T03:34:08.602Z,96009.56
2023-05-01T03:36:36.114Z,96016.38
2023-05-01T03:39:02.726Z,96010.66
2023-05-01T03:41:29.369Z,96001.72
2023-05-01T03:43:56.040Z,96011.91
2023-05-01T03:46:22.714Z,96005.78
2023-05-01T03:48:49.404Z,96006.84
2023-05-01T03:51:17.269Z,95998.69
2023-05-01T03:53:43.965Z,96000.94
2023-05-01T03:56:10.662Z,95993.69
2023-05-01T03:58:37.348Z,96002.53
2023-05-01T04:01:04.158Z,95985.31
2023-05-01T04:03:30.886Z,95984.44
2023-05-01T04:05:58.064Z,95992.84
2023-05-01T04:08:25.244Z,95984.66
2023-05-01T04:10:51.921Z,95985.59
2023-05-01T04:13:18.563Z,95980.16
2023-05-01T04:15:46.720Z,95987.28
2023-05-01T04:18:13.593Z,95988.22
2023-05-01T04:20:43.023Z,95988.69
2023-05-01T04:23:09.767Z,95974.28
2023-05-01T04:25:37.269Z,95981.84
2023-05-01T04:28:04.402Z,95990.94
2023-05-01T04:30:31.679Z,95972.97
2023-05-01T04:33:01.959Z,95984.75
2023-05-01T04:35:28.722Z,95980.19
2023-05-01T04:37:55.342Z,95980.19
2023-05-01T04:40:22.143Z,95981.28
2023-05-01T04:42:48.764Z,95982.44
2023-05-01T04:45:15.500Z,95976.31
2023-05-01T04:47:42.167Z,95987.19
2023-05-01T04:50:09.307Z,95980.56
2023-05-01T04:52:36.070Z,95985.88
2023-05-01T04:55:03.831Z,95981.28
2023-05-01T04:57:30.478Z,95976.59
2023-05-01T04:59:57.551Z,95990.31
2023-05-01T05:02:24.896Z,95974.69
2023-05-01T05:04:53.967Z,95970.81
2023-05-01T05:07:21.135Z,95972.34
2023-05-01T05:09:48.075Z,95973.03
2023-05-01T05:12:15.069Z,95964.59
2023-05-01T05:14:42.319Z,95966.44
2023-05-01T05:17:09.821Z,95963.44
2023-05-01T05:19:36.543Z,95959.09
2023-05-01T05:22:03.483Z,95956.28
2023-05-01T05:24:30.401Z,95953.13
2023-05-01T05:26:57.098Z,95955.63
2023-05-01T05:29:23.781Z,95958.28
2023-05-01T05:31:50.438Z,95966.59
2023-05-01T05:34:17.552Z,95965.38
2023-05-01T05:36:44.174Z,95953.88
2023-05-01T05:39:13.166Z,95953.56
2023-05-01T05:41:39.816Z,95955.09
2023-05-01T05:44:06.459Z,95949.66
2023-05-01T05:46:33.187Z,95951.66
2023-05-01T05:48:59.968Z,95951.81
2023-05-01T05:51:26.732Z,95951.66
2023-05-01T05:53:53.380Z,95948.00
2023-05-01T05:56:20.275Z,95950.41
2023-05-01T05:58:46.853Z,95940.28
2023-05-01T06:01:15.066Z,95944.63
2023-05-01T06:03:42.038Z,95939.91
2023-05-01T06:06:08.886Z,95943.47
2023-05-01T06:08:37.553Z,95936.09
2023-05-01T06:11:04.322Z,95942.84
2023-05-01T06:13:30.966Z,95942.28
2023-05-01T06:15:57.655Z,95929.53
2023-05-01T06:18:24.448Z,95929.63
2023-05-01T06:20:51.209Z,95933.28
2023-05-01T06:23:17.954Z,95923.28
2023-05-01T06:25:44.613Z,95926.63
2023-05-01T06:28:11.351Z,95924.13
2023-05-01T06:30:37.992Z,95925.84
2023-05-01T06:33:04.774Z,95927.56
2023-05-01T06:35:31.867Z,95924.47
2023-05-01T06:37:58.496Z,95926.00
2023-05-01T06:40:25.141Z,95932.09
2023-05-01T06:42:51.820Z,95932.88
2023-05-01T06:45:18.553Z,95927.63
2023-05-01T06:47:45.286Z,95914.28
2023-05-01T06:50:12.045Z,95913.44
2023-05-01T06:52:40.349Z,95922.25
2023-05-01T06:55:07.301Z,95924.03
2023-05-01T06:57:33.938Z,95929.53
2023-05-01T07:00:00.534Z,95928.22
2023-05-01T07:02:27.539Z,95925.41
2023-05-01T07:04:54.204Z,95918.41
2023-05-01T07:07:20.873Z,95911.44
2023-05-01T07:09:47.472Z,95915.34
2023-05-01T07:12:14.165Z,95912.34
2023-05-01T07:14:41.668Z,95914.34
2023-05-01T07:17:09.297Z,95910.00
2023-05-01T07:19:35.910Z,95901.31
2023-05-01T07:22:03.320Z,95909.00
2023-05-01T07:24:29.900Z,95909.91
2023-05-01T07:26:56.639Z,95900.31
2023-05-01T07:29:23.361Z,95901.47
2023-05-01T07:31:49.979Z,95903.97
2023-05-01T07:34:18.211Z,95887.09
2023-05-01T07:36:45.047Z,95892.97
2023-05-01T07:39:11.861Z,95896.91
2023-05-01T07:41:38.474Z,95888.69
2023-05-01T07:44:05.158Z,95882.38
2023-05-01T07:46:31.835Z,95890.44
2023-05-01T07:48:58.527Z,95886.81
2023-05-01T07:51:25.264Z,95886.00
2023-05-01T07:53:52.484Z,95876.81
2023-05-01T07:56:19.171Z,95883.47
2023-05-01T07:58:45.913Z,95879.66
2023-05-01T08:01:12.603Z,95876.47
2023-05-01T08:03:39.391Z,95878.88
2023-05-01T08:06:06.974Z,95881.50
2023-05-01T08:08:33.887Z,95883.69
2023-05-01T08:11:00.472Z,95880.44
2023-05-01T08:13:27.211Z,95877.44
2023-05-01T08:15:54.121Z,95874.25
2023-05-01T08:18:21.400Z,95882.66
2023-05-01T08:20:48.614Z,95877.44
2023-05-01T08:23:16.574Z,95876.75
2023-05-01T08:25:43.404Z,95880.09
2023-05-01T08:28:10.357Z,95866.19
2023-05-01T08:30:36.980Z,95868.59
2023-05-01T08:33:03.859Z,95868.00
2023-05-01T08:35:30.641Z,95859.72
2023-05-01T08:37:58.130Z,95863.16
2023-05-01T08:40:26.409Z,95865.03
2023-05-01T08:42:55.096Z,95867.22
2023-05-01T08:45:23.959Z,95856.13
2023-05-01T08:47:53.026Z,95851.59
2023-05-01T08:50:22.705Z,95857.81
2023-05-01T08:52:52.779Z,95861.94
2023-05-01T08:55:21.039Z,95857.06
2023-05-01T08:57:48.791Z,95853.16
2023-05-01T09:00:22.719Z,95858.53
2023-05-01T09:02:50.580Z,95855.41
2023-05-01T09:05:19.644Z,95864.34
2023-05-01T09:07:47.199Z,95861.72
2023-05-01T09:10:16.534Z,95857.63
2023-05-01T09:12:47.072Z,95865.78
2023-05-01T09:15:14.325Z,95858.19
2023-05-01T09:17:43.397Z,95858.09
2023-05-01T09:20:10.737Z,95859.22
2023-05-01T09:22:37.418Z,95854.84
2023-05-01T09:25:04.448Z,95852.38
2023-05-01T09:27:35.819Z,95856.78
2023-05-01T09:30:03.392Z,95858.97
2023-05-01T09:32:30.115Z,95857.31
2023-05-01T09:35:09.941Z,95854.56
2023-05-01T09:37:36.690Z,95848.25
2023-05-01T09:40:14.353Z,95860.53
2023-05-01T09:42:51.812Z,95846.13
2023-05-01T09:45:19.352Z,95853.22
2023-05-01T09:47:47.112Z,95846.72
2023-05-01T09:50:34.566Z,95847.41
2023-05-01T09:53:02.790Z,95847.00
2023-05-01T09:55:29.445Z,95847.97
2023-05-01T09:57:56.265Z,95847.59
2023-05-01T10:00:22.902Z,95842.47
2023-05-01T10:02:50.078Z,95837.69
2023-05-01T10:05:17.865Z,95842.22
2023-05-01T10:08:02.222Z,95847.91
2023-05-01T10:10:29.296Z,95850.13
2023-05-01T10:12:55.977Z,95846.66
2023-05-01T10:15:26.774Z,95849.88
2023-05-01T10:17:54.582Z,95852.22
2023-05-01T10:20:21.859Z,95855.97
2023-05-01T10:22:49.240Z,95853.81
2023-05-01T10:25:18.015Z,95848.03
2023-05-01T10:27:44.884Z,95847.44
2023-05-01T10:30:11.809Z,95850.97
2023-05-01T10:32:41.111Z,95845.97
2023-05-01T10:35:11.223Z,95839.78
2023-05-01T10:37:59.189Z,95850.91
2023-05-01T10:40:41.089Z,95848.63
2023-05-01T10:43:37.121Z,95840.44
2023-05-01T10:46:09.664Z,95837.22
2023-05-01T10:48:39.534Z,95829.91
2023-05-01T10:51:15.546Z,95838.91
2023-05-01T10:53:43.386Z,95828.13
2023-05-01T10:56:24.136Z,95823.19
2023-05-01T10:58:53.466Z,95818.66
2023-05-01T11:01:33.688Z,95818.47
2023-05-01T11:04:19.030Z,95807.91
2023-05-01T11:07:11.546Z,95808.00
2023-05-01T11:09:55.387Z,95814.31
2023-05-01T11:12:47.168Z,95804.81
2023-05-01T11:15:25.683Z,95810.53
2023-05-01T11:17:52.832Z,95801.88
2023-05-01T11:20:25.328Z,95805.38
2023-05-01T11:22:57.186Z,95805.00
2023-05-01T11:25:31.466Z,95804.69
2023-05-01T11:28:01.082Z,95801.31
2023-05-01T11:30:37.549Z,95793.50
2023-05-01T11:33:05.773Z,95779.91
2023-05-01T11:35:33.397Z,95774.47
2023-05-01T11:38:00.262Z,95770.19
2023-05-01T11:40:32.051Z,95777.63
2023-05-01T11:43:08.738Z,95778.44
2023-05-01T11:45:36.968Z,95769.03
2023-05-01T11:48:05.178Z,95761.16
2023-05-01T11:50:33.900Z,95762.31
2023-05-01T11:53:00.645Z,95763.47
2023-05-01T11:55:34.860Z,95756.38
2023-05-01T11:58:02.745Z,95756.69
2023-05-01T12:00:31.797Z,95760.22
2023-05-01T12:03:03.308Z,95757.44
2023-05-01T12:05:31.989Z,95749.31
2023-05-01T12:08:12.262Z,95757.19
2023-05-01T12:10:41.715Z,95752.44
2023-05-01T12:13:10.723Z,95748.03
2023-05-01T12:15:40.832Z,95747.63
2023-05-01T12:18:08.277Z,95744.53
2023-05-01T12:20:38.580Z,95753.63
2023-05-01T12:23:06.960Z,95741.94
2023-05-01T12:25:35.013Z,95746.31
2023-05-01T12:28:11.044Z,95742.34
2023-05-01T12:30:38.628Z,95735.72
2023-05-01T12:33:17.246Z,95737.66
2023-05-01T12:35:46.868Z,95735.34
2023-05-01T12:38:21.509Z,95734.53
2023-05-01T12:40:59.597Z,95729.44
2023-05-01T12:43:37.343Z,95729.44
2023-05-01T12:46:05.940Z,95725.94
2023-05-01T12:48:35.633Z,95722.38
2023-05-01T12:51:02.330Z,95725.94
2023-05-01T12:53:29.728Z,95729.00
2023-05-01T12:55:58.197Z,95724.25
2023-05-01T12:58:35.717Z,95717.63
2023-05-01T13:01:02.567Z,95721.50
2023-05-01T13:03:30.362Z,95716.34
2023-05-01T13:06:02.715Z,95712.88
2023-05-01T13:08:30.459Z,95711.31
2023-05-01T13:10:59.458Z,95719.53
2023-05-01T13:13:31.992Z,95712.00
2023-05-01T13:16:12.406Z,95709.38
2023-05-01T13:18:47.876Z,95709.25
2023-05-01T13:21:16.997Z,95710.84
2023-05-01T13:23:53.778Z,95711.13
2023-05-01T13:26:27.234Z,95709.13
2023-05-01T13:28:54.136Z,95704.38
2023-05-01T13:31:20.917Z,95711.34
2023-05-01T13:33:51.061Z,95703.44
2023-05-01T13:36:25.326Z,95704.19
2023-05-01T13:38:56.296Z,95698.75
2023-05-01T13:41:27.404Z,95702.66
2023-05-01T13:43:56.718Z,95699.56
2023-05-01T13:46:24.886Z,95702.34
2023-05-01T13:48:52.030Z,95699.19
2023-05-01T13:51:23.481Z,95694.06
2023-05-01T13:53:50.647Z,95696.75
2023-05-01T13:56:17.367Z,95691.19
2023-05-01T13:58:44.257Z,95686.50
2023-05-01T14:01:22.992Z,95690.50
2023-05-01T14:03:50.032Z,95692.78
2023-05-01T14:06:21.286Z,95687.97
2023-05-01T14:08:51.043Z,95680.88
2023-05-01T14:11:18.341Z,95681.56
2023-05-01T14:13:46.571Z,95680.75
2023-05-01T14:16:27.284Z,95676.44
2023-05-01T14:18:57.067Z,95668.97
2023-05-01T14:21:27.940Z,95673.38
2023-05-01T14:23:56.724Z,95670.81
2023-05-01T14:26:24.572Z,95678.53
2023-05-01T14:28:51.485Z,95669.44
2023-05-01T14:31:30.420Z,95669.44
2023-05-01T14:33:59.644Z,95665.84
2023-05-01T14:36:28.561Z,95662.66
2023-05-01T14:38:59.256Z,95659.09
2023-05-01T14:41:26.206Z,95660.69
2023-05-01T14:43:53.913Z,95671.69
2023-05-01T14:46:31.883Z,95662.38
2023-05-01T14:49:00.891Z,95662.25
2023-05-01T14:51:28.648Z,95666.28
2023-05-01T14:53:55.480Z,95667.06
2023-05-01T14:56:23.075Z,95667.09
2023-05-01T14:58:50.111Z,95666.28
2023-05-01T15:01:17.003Z,95667.88
2023-05-01T15:03:44.019Z,95670.25
2023-05-01T15:06:11.376Z,95664.75
2023-05-01T15:08:38.382Z,95661.88
2023-05-01T15:11:05.244Z,95671.69
2023-05-01T15:13:31.995Z,95666.28
2023-05-01T15:15:59.015Z,95667.16
2023-05-01T15:18:26.318Z,95675.03
2023-05-01T15:20:53.235Z,95676.97
2023-05-01T15:23:20.172Z,95677.34
2023-05-01T15:25:47.964Z,95673.47
2023-05-01T15:28:14.897Z,95678.16
2023-05-01T15:30:46.514Z,95678.53
2023-05-01T15:33:16.219Z,95677.38
2023-05-01T15:35:46.789Z,95677.75
2023-05-01T15:38:13.440Z,95678.16
2023-05-01T15:40:43.179Z,95675.78
2023-05-01T15:43:09.898Z,95681.66
2023-05-01T15:45:42.879Z,95680.44
2023-05-01T15:48:11.244Z,95687.81
2023-05-01T15:50:38.006Z,95694.84
2023-05-01T15:53:04.703Z,95694.03
2023-05-01T15:55:31.336Z,95698.97
2023-05-01T15:57:57.943Z,95695.75
2023-05-01T16:00:25.433Z,95696.59
2023-05-01T16:02:52.233Z,95701.22
2023-05-01T16:05:23.021Z,95707.34
2023-05-01T16:07:56.080Z,95712.75
2023-05-01T16:10:23.398Z,95708.78
2023-05-01T16:12:53.268Z,95704.72
2023-05-01T16:15:19.941Z,95709.84
2023-05-01T16:17:46.830Z,95712.84
2023-05-01T16:20:14.457Z,95726.03
2023-05-01T16:22:43.072Z,95731.34
2023-05-01T16:25:10.821Z,95722.31
2023-05-01T16:27:42.525Z,95737.44
2023-05-01T16:30:10.195Z,95742.88
2023-05-01T16:32:39.540Z,95740.41
2023-05-01T16:35:06.596Z,95742.59
2023-05-01T16:37:34.229Z,95747.94
2023-05-01T16:40:01.734Z,95755.00
2023-05-01T16:42:28.731Z,95755.53
2023-05-01T16:44:56.636Z,95763.59
2023-05-01T16:47:23.487Z,95765.34
2023-05-01T16:49:51.243Z,95779.19
2023-05-01T16:52:18.006Z,95777.81
2023-05-01T16:54:44.614Z,95769.00
2023-05-01T16:57:11.290Z,95775.72
2023-05-01T16:59:38.124Z,95783.25
2023-05-01T17:02:06.016Z,95777.44
2023-05-01T17:04:33.509Z,95788.75
2023-05-01T17:07:00.460Z,95793.03
2023-05-01T17:09:27.235Z,95800.41
2023-05-01T17:11:56.579Z,95802.16
2023-05-01T17:14:23.361Z,95810.06
2023-05-01T17:16:50.592Z,95816.06
2023-05-01T17:19:17.427Z,95821.84
2023-05-01T17:21:44.140Z,95830.88
2023-05-01T17:24:11.092Z,95829.44
2023-05-01T17:26:37.883Z,95831.03
2023-05-01T17:29:04.489Z,95831.63
2023-05-01T17:31:31.955Z,95834.38
2023-05-01T17:33:58.580Z,95840.88
2023-05-01T17:36:25.484Z,95845.88
2023-05-01T17:38:53.581Z,95843.81
2023-05-01T17:41:20.307Z,95851.72
2023-05-01T17:43:47.010Z,95853.31
2023-05-01T17:46:14.255Z,95858.84
2023-05-01T17:48:44.283Z,95867.41
2023-05-01T17:51:13.929Z,95874.84
2023-05-01T17:53:40.990Z,95871.72
2023-05-01T17:56:08.294Z,95888.28
2023-05-01T17:58:35.858Z,95888.50
2023-05-01T18:01:04.654Z,95901.75
2023-05-01T18:03:32.889Z,95902.28
2023-05-01T18:06:01.452Z,95897.69
2023-05-01T18:08:28.268Z,95896.09
2023-05-01T18:10:54.891Z,95894.06
2023-05-01T18:13:27.780Z,95904.00
2023-05-01T18:15:55.806Z,95911.88
2023-05-01T18:18:22.984Z,95910.22
2023-05-01T18:20:49.688Z,95918.44
2023-05-01T18:23:18.876Z,95926.34
2023-05-01T18:25:46.759Z,95927.94
2023-05-01T18:28:16.481Z,95934.28
2023-05-01T18:30:43.231Z,95941.91
2023-05-01T18:33:10.190Z,95941.56
2023-05-01T18:35:39.442Z,95941.00
2023-05-01T18:38:06.108Z,95955.63
2023-05-01T18:40:33.155Z,95960.66
2023-05-01T18:42:59.817Z,95971.19
2023-05-01T18:45:26.403Z,95974.50
2023-05-01T18:47:53.164Z,95972.63
2023-05-01T18:50:21.938Z,95980.00
2023-05-01T18:52:48.921Z,95985.09
2023-05-01T18:55:16.144Z,95993.91
2023-05-01T18:57:43.807Z,95991.53
2023-05-01T19:00:13.548Z,96000.13
2023-05-01T19:02:40.286Z,96003.63
2023-05-01T19:05:08.687Z,96000.22
2023-05-01T19:07:35.655Z,96017.03
2023-05-01T19:10:02.823Z,96009.22
2023-05-01T19:12:29.976Z,96015.97
2023-05-01T19:14:56.640Z,96023.09
2023-05-01T19:17:23.324Z,96035.00
2023-05-01T19:19:49.964Z,96035.94
2023-05-01T19:22:16.761Z,96033.25
2023-05-01T19:24:43.421Z,96034.47
2023-05-01T19:27:10.117Z,96045.53
2023-05-01T19:29:36.769Z,96047.47
2023-05-01T19:32:03.617Z,96051.13
2023-05-01T19:34:30.401Z,96057.28
2023-05-01T19:36:57.098Z,96058.72
2023-05-01T19:39:23.916Z,96059.31
2023-05-01T19:41:50.691Z,96064.63
2023-05-01T19:44:17.417Z,96066.91
2023-05-01T19:46:44.426Z,96066.81
2023-05-01T19:49:11.039Z,96065.31
2023-05-01T19:51:37.838Z,96069.66
2023-05-01T19:54:07.194Z,96074.81
2023-05-01T19:56:34.685Z,96078.91
2023-05-01T19:59:01.371Z,96083.28
2023-05-01T20:01:29.865Z,96076.78
2023-05-01T20:03:56.760Z,96088.31
2023-05-01T20:06:23.433Z,96084.50
2023-05-01T20:08:50.167Z,96088.50
2023-05-01T20:11:16.971Z,96105.47
2023-05-01T20:13:43.678Z,96107.63
2023-05-01T20:16:10.412Z,96104.53
2023-05-01T20:18:37.351Z,96109.56
2023-05-01T20:21:06.080Z,96110.50
2023-05-01T20:23:34.474Z,96110.09
2023-05-01T20:26:01.363Z,96111.88
2023-05-01T20:28:28.586Z,96118.91
2023-05-01T20:30:55.688Z,96114.97
2023-05-01T20:33:22.392Z,96125.41
2023-05-01T20:35:49.062Z,96112.13
2023-05-01T20:38:15.663Z,96109.69
2023-05-01T20:40:42.364Z,96121.28
2023-05-01T20:43:08.996Z,96105.25
2023-05-01T20:45:35.693Z,96118.94
2023-05-01T20:48:02.360Z,96114.84
2023-05-01T20:50:29.284Z,96118.66
2023-05-01T20:52:56.356Z,96117.72
2023-05-01T20:55:23.971Z,96119.63
2023-05-01T20:57:50.667Z,96114.22
2023-05-01T21:00:17.609Z,96123.28
2023-05-01T21:02:44.624Z,96134.56
2023-05-01T21:05:12.091Z,96130.75
2023-05-01T21:07:39.858Z,96127.72
2023-05-01T21:10:08.912Z,96141.56
2023-05-01T21:12:35.684Z,96134.25
2023-05-01T21:15:03.653Z,96144.41
2023-05-01T21:17:34.729Z,96141.56
2023-05-01T21:20:02.199Z,96129.97
2023-05-01T21:22:29.015Z,96132.50
2023-05-01T21:24:59.952Z,96134.72
2023-05-01T21:27:27.570Z,96148.19
2023-05-01T21:29:59.286Z,96149.00
2023-05-01T21:32:34.159Z,96150.06
2023-05-01T21:35:01.167Z,96149.97
2023-05-01T21:37:29.280Z,96149.53
2023-05-01T21:39:59.200Z,96155.97
2023-05-01T21:42:36.569Z,96162.22
2023-05-01T21:45:07.749Z,96155.94
2023-05-01T21:47:39.778Z,96162.50
2023-05-01T21:50:17.841Z,96162.25
2023-05-01T21:52:46.408Z,96164.28
2023-05-01T21:55:21.660Z,96166.84
2023-05-01T21:57:53.190Z,96156.84
2023-05-01T22:00:20.698Z,96158.56
2023-05-01T22:02:49.829Z,96155.66
2023-05-01T22:05:18.421Z,96155.03
2023-05-01T22:07:46.985Z,96166.19
2023-05-01T22:10:17.105Z,96164.84
2023-05-01T22:12:44.826Z,96157.88
2023-05-01T22:15:12.966Z,96163.75
2023-05-01T22:17:40.600Z,96165.31
2023-05-01T22:20:09.095Z,96162.81
2023-05-01T22:22:36.961Z,96167.25
2023-05-01T22:25:04.682Z,96168.53
2023-05-01T22:27:31.422Z,96172.53
2023-05-01T22:29:58.243Z,96169.34
2023-05-01T22:32:25.299Z,96174.59
2023-05-01T22:34:51.937Z,96183.31
2023-05-01T22:37:19.646Z,96177.28
2023-05-01T22:39:46.415Z,96176.19
2023-05-01T22:42:13.195Z,96173.81
2023-05-01T22:44:39.936Z,96174.28
2023-05-01T22:47:07.210Z,96171.25
2023-05-01T22:49:33.830Z,96171.72
2023-05-01T22:52:00.490Z,96181.75
2023-05-01T22:54:27.152Z,96178.88
2023-05-01T22:56:53.759Z,96178.72
2023-05-01T22:59:21.813Z,96183.50
2023-05-01T23:01:48.729Z,96181.91
2023-05-01T23:04:15.698Z,96179.84
2023-05-01T23:06:43.344Z,96179.22
2023-05-01T23:09:10.263Z,96175.84
2023-05-01T23:11:37.349Z,96172.84
2023-05-01T23:14:03.990Z,96179.34
2023-05-01T23:16:39.700Z,96179.81
2023-05-01T23:19:20.170Z,96179.81
2023-05-01T23:21:47.409Z,96171.28
2023-05-01T23:24:18.277Z,96181.13
2023-05-01T23:26:45.746Z,96181.75
2023-05-01T23:29:18.335Z,96182.84
2023-05-01T23:31:47.580Z,96186.34
2023-05-01T23:34:17.679Z,96189.69
2023-05-01T23:36:46.232Z,96184.91
2023-05-01T23:39:13.319Z,96188.56
2023-05-01T23:41:40.277Z,96182.03
2023-05-01T23:44:07.611Z,96181.41
2023-05-01T23:46:34.461Z,96190.47
2023-05-01T23:49:01.198Z,96185.41
2023-05-01T23:51:27.917Z,96184.75
2023-05-01T23:53:55.767Z,96193.38
2023-05-01T23:56:22.406Z,96189.81
2023-05-01T23:58:49.069Z,96194.81
